createdAt,value
2023-01-15T00:00:54.087Z,5.60
2023-01-15T00:03:55.184Z,3.60
2023-01-15T00:06:57.804Z,6.30
2023-01-15T00:10:23.630Z,4.80
2023-01-15T00:13:16.415Z,4.40
2023-01-15T00:16:23.475Z,4.50
2023-01-15T00:19:17.280Z,3.90
2023-01-15T00:22:16.728Z,5.00
2023-01-15T00:25:36.123Z,3.00
2023-01-15T00:28:32.031Z,3.50
2023-01-15T00:34:14.992Z,4.20
2023-01-15T00:37:13.730Z,6.50
2023-01-15T00:40:01.646Z,6.30
2023-01-15T00:42:56.354Z,4.60
2023-01-15T00:45:42.855Z,4.80
2023-01-15T00:48:42.943Z,4.00
2023-01-15T00:51:35.384Z,3.80
2023-01-15T00:54:25.757Z,4.00
2023-01-15T00:57:16.868Z,5.30
2023-01-15T01:00:06.441Z,5.40
2023-01-15T01:02:59.518Z,6.60
2023-01-15T01:06:00.223Z,7.10
2023-01-15T01:08:55.727Z,5.60
2023-01-15T01:11:46.492Z,5.60
2023-01-15T01:14:37.030Z,3.00
2023-01-15T01:17:29.414Z,5.10
2023-01-15T01:20:28.500Z,4.20
2023-01-15T01:23:24.633Z,4.20
2023-01-15T01:26:14.569Z,2.90
2023-01-15T01:29:19.547Z,3.00
2023-01-15T01:32:15.392Z,7.90
2023-01-15T01:35:08.631Z,6.10
2023-01-15T01:37:59.879Z,4.50
2023-01-15T01:40:53.094Z,5.80
2023-01-15T01:44:18.327Z,3.90
2023-01-15T01:47:56.622Z,3.70
2023-01-15T01:50:57.587Z,6.40
2023-01-15T01:53:46.834Z,4.80
2023-01-15T01:56:43.687Z,4.20
2023-01-15T01:59:33.599Z,3.30
2023-01-15T02:02:31.808Z,3.40
2023-01-15T02:05:27.021Z,5.50
2023-01-15T02:08:23.927Z,10.60
2023-01-15T02:11:28.110Z,4.80
2023-01-15T02:14:37.708Z,5.30
2023-01-15T02:17:37.324Z,3.90
2023-01-15T02:23:56.767Z,4.10
2023-01-15T02:27:10.677Z,3.10
2023-01-15T02:30:15.259Z,3.40
2023-01-15T02:32:58.700Z,4.40
2023-01-15T02:35:34.133Z,3.90
2023-01-15T02:38:27.621Z,2.60
2023-01-15T02:41:38.525Z,8.60
2023-01-15T02:44:39.611Z,3.50
2023-01-15T02:47:44.533Z,5.00
2023-01-15T02:50:55.351Z,1.90
2023-01-15T02:53:50.056Z,4.80
2023-01-15T02:56:50.330Z,2.00
2023-01-15T03:00:09.282Z,2.60
2023-01-15T03:03:16.447Z,2.90
2023-01-15T03:06:27.819Z,4.20
2023-01-15T03:09:24.792Z,3.90
2023-01-15T03:12:37.637Z,4.10
2023-01-15T03:15:48.691Z,2.10
2023-01-15T03:18:43.883Z,3.00
2023-01-15T03:21:53.213Z,3.20
2023-01-15T03:24:43.326Z,3.60
2023-01-15T03:27:41.724Z,2.80
2023-01-15T03:30:38.167Z,4.20
2023-01-15T03:33:26.567Z,3.90
2023-01-15T03:36:18.406Z,2.60
2023-01-15T03:39:07.259Z,3.10
2023-01-15T03:42:48.388Z,2.60
2023-01-15T03:45:42.091Z,1.90
2023-01-15T03:49:02.349Z,2.80
2023-01-15T03:51:56.901Z,1.90
2023-01-15T03:55:12.857Z,2.00
2023-01-15T03:58:40.009Z,3.00
2023-01-15T04:05:31.697Z,1.90
2023-01-15T04:08:36.444Z,3.00
2023-01-15T04:12:29.502Z,2.50
2023-01-15T04:15:50.905Z,3.10
2023-01-15T04:22:34.218Z,1.50
2023-01-15T04:28:56.718Z,1.30
2023-01-15T04:32:09.976Z,0.80
2023-01-15T04:35:01.313Z,3.80
2023-01-15T04:38:02.054Z,1.40
2023-01-15T04:41:14.486Z,2.30
2023-01-15T04:44:21.469Z,2.10
2023-01-15T04:47:14.133Z,2.30
2023-01-15T04:50:12.373Z,2.70
2023-01-15T04:53:17.897Z,1.70
2023-01-15T04:56:20.734Z,1.80
2023-01-15T04:59:11.090Z,0.70
2023-01-15T05:02:06.631Z,3.00
2023-01-15T05:04:56.776Z,1.40
2023-01-15T05:07:50.298Z,1.80
2023-01-15T05:10:40.953Z,1.90
2023-01-15T05:16:36.301Z,1.90
2023-01-15T05:19:26.453Z,0.90
2023-01-15T05:22:13.087Z,2.60
2023-01-15T05:25:17.494Z,1.30
2023-01-15T05:28:07.442Z,2.60
2023-01-15T05:33:59.341Z,2.40
2023-01-15T05:37:02.435Z,1.30
2023-01-15T05:39:49.325Z,0.90
2023-01-15T05:42:37.871Z,1.40
2023-01-15T05:45:23.852Z,3.10
2023-01-15T05:51:07.399Z,3.20
2023-01-15T05:54:01.287Z,1.40
2023-01-15T05:56:49.297Z,1.20
2023-01-15T05:59:56.370Z,1.90
2023-01-15T06:02:43.850Z,2.70
2023-01-15T06:05:44.062Z,1.40
2023-01-15T06:08:44.944Z,4.50
2023-01-15T06:11:35.315Z,1.90
2023-01-15T06:14:27.945Z,2.50
2023-01-15T06:17:33.748Z,3.00
2023-01-15T06:20:29.667Z,5.80
2023-01-15T06:23:22.007Z,5.30
2023-01-15T06:26:19.706Z,3.20
2023-01-15T06:29:16.178Z,4.20
2023-01-15T06:32:01.954Z,4.50
2023-01-15T06:34:59.268Z,4.40
2023-01-15T06:37:50.948Z,3.60
2023-01-15T06:40:50.490Z,3.20
2023-01-15T06:43:56.838Z,3.10
2023-01-15T06:47:20.689Z,2.60
2023-01-15T06:50:07.719Z,3.70
2023-01-15T06:53:10.178Z,4.60
2023-01-15T06:56:06.191Z,5.00
2023-01-15T06:59:07.399Z,4.60
2023-01-15T07:06:05.349Z,2.20
2023-01-15T07:09:09.678Z,2.00
2023-01-15T07:12:19.070Z,3.00
2023-01-15T07:15:13.475Z,4.10
2023-01-15T07:18:10.892Z,5.40
2023-01-15T07:21:14.863Z,4.60
2023-01-15T07:24:08.413Z,3.70
2023-01-15T07:27:18.820Z,4.00
2023-01-15T07:30:23.304Z,2.80
2023-01-15T07:33:19.800Z,2.10
2023-01-15T07:36:15.239Z,4.10
2023-01-15T07:39:09.908Z,1.70
2023-01-15T07:42:21.146Z,2.40
2023-01-15T07:45:25.669Z,4.40
2023-01-15T07:48:36.221Z,2.50
2023-01-15T07:51:29.319Z,5.40
2023-01-15T07:54:20.797Z,3.60
2023-01-15T07:57:20.816Z,3.80
2023-01-15T08:00:15.268Z,3.10
2023-01-15T08:03:08.290Z,2.70
2023-01-15T08:06:10.733Z,3.90
2023-01-15T08:08:57.734Z,4.20
2023-01-15T08:12:10.596Z,4.20
2023-01-15T08:15:19.990Z,4.50
2023-01-15T08:18:23.615Z,3.60
2023-01-15T08:21:12.417Z,4.00
2023-01-15T08:24:18.397Z,4.90
2023-01-15T08:42:20.215Z,3.70
2023-01-15T08:45:46.777Z,5.30
2023-01-15T08:48:52.072Z,5.50
2023-01-15T08:52:05.354Z,4.00
2023-01-15T08:55:12.453Z,3.60
2023-01-15T08:58:27.137Z,6.10
2023-01-15T09:01:27.280Z,5.50
2023-01-15T09:04:31.632Z,7.80
2023-01-15T09:07:24.535Z,5.10
2023-01-15T09:13:30.038Z,7.10
2023-01-15T09:16:26.980Z,10.50
2023-01-15T09:19:15.457Z,18.20
2023-01-15T09:22:05.680Z,5.30
2023-01-15T09:24:52.487Z,14.30
2023-01-15T09:27:39.304Z,7.30
2023-01-15T09:30:31.541Z,7.30
2023-01-15T09:33:30.936Z,5.40
2023-01-15T09:36:27.670Z,8.10
2023-01-15T09:39:22.514Z,28.90
2023-01-15T09:42:29.393Z,12.30
2023-01-15T09:46:00.772Z,7.80
2023-01-15T09:49:27.375Z,11.00
2023-01-15T09:52:55.777Z,11.50
2023-01-15T09:55:53.586Z,9.60
2023-01-15T10:01:43.414Z,11.70
2023-01-15T10:04:53.542Z,16.80
2023-01-15T10:08:03.847Z,15.70
2023-01-15T10:14:51.599Z,8.20
2023-01-15T10:18:06.996Z,10.40
2023-01-15T10:21:12.565Z,12.30
2023-01-15T10:24:31.194Z,13.00
2023-01-15T10:27:29.313Z,9.10
2023-01-15T10:30:42.624Z,9.80
2023-01-15T10:34:02.985Z,17.10
2023-01-15T10:37:11.137Z,12.80
2023-01-15T10:40:39.119Z,9.40
2023-01-15T10:43:53.240Z,19.50
2023-01-15T10:46:47.779Z,10.50
2023-01-15T10:49:48.833Z,10.80
2023-01-15T10:52:46.806Z,16.30
2023-01-15T10:59:00.385Z,11.30
2023-01-15T11:04:51.049Z,14.00
2023-01-15T11:09:05.908Z,24.40
2023-01-15T11:11:47.678Z,9.60
2023-01-15T11:15:13.109Z,10.70
2023-01-15T11:18:19.057Z,16.70
2023-01-15T11:21:10.410Z,9.10
2023-01-15T11:24:14.839Z,11.70
2023-01-15T11:27:01.607Z,13.50
2023-01-15T11:29:55.739Z,22.90
2023-01-15T11:32:50.989Z,19.40
2023-01-15T11:35:42.583Z,13.70
2023-01-15T11:38:36.452Z,11.70
2023-01-15T11:41:51.619Z,22.70
2023-01-15T11:45:06.401Z,22.70
2023-01-15T11:48:20.777Z,23.90
2023-01-15T11:51:25.762Z,18.20
2023-01-15T11:54:37.980Z,19.00
2023-01-15T11:57:40.726Z,15.10
2023-01-15T12:00:40.525Z,9.70
2023-01-15T12:03:40.588Z,7.80
2023-01-15T12:06:33.057Z,16.50
2023-01-15T12:09:32.762Z,13.50
2023-01-15T12:13:03.616Z,11.40
2023-01-15T12:16:07.882Z,13.90
2023-01-15T12:19:37.626Z,17.20
2023-01-15T12:22:39.472Z,15.00
2023-01-15T12:25:50.439Z,18.10
2023-01-15T12:28:59.305Z,22.20
2023-01-15T12:32:34.462Z,27.80
2023-01-15T12:39:32.685Z,14.40
2023-01-15T12:42:53.589Z,16.80
2023-01-15T12:46:22.609Z,15.20
2023-01-15T12:50:06.863Z,16.70
2023-01-15T12:56:58.860Z,25.00
2023-01-15T13:15:02.999Z,11.30
2023-01-15T13:21:29.910Z,18.90
2023-01-15T13:24:53.251Z,16.90
2023-01-15T13:28:12.256Z,13.00
2023-01-15T13:31:25.565Z,13.90
2023-01-15T13:34:31.927Z,9.10
2023-01-15T13:37:48.852Z,12.20
2023-01-15T13:40:56.982Z,9.70
2023-01-15T13:44:01.571Z,33.40
2023-01-15T13:46:47.064Z,14.70
2023-01-15T13:50:00.043Z,10.20
2023-01-15T13:52:53.392Z,10.70
2023-01-15T13:59:08.270Z,9.30
2023-01-15T14:02:02.234Z,9.40
2023-01-15T14:05:07.387Z,9.90
2023-01-15T14:08:03.821Z,23.40
2023-01-15T14:10:58.740Z,21.20
2023-01-15T14:17:00.386Z,7.20
2023-01-15T14:20:01.981Z,6.90
2023-01-15T14:23:10.180Z,5.60
2023-01-15T14:30:11.685Z,7.50
2023-01-15T14:33:47.732Z,26.30
2023-01-15T14:37:10.393Z,32.50
2023-01-15T14:40:18.490Z,52.90
2023-01-15T14:43:35.549Z,39.40
2023-01-15T14:47:12.137Z,66.80
2023-01-15T14:50:54.958Z,36.80
2023-01-15T14:54:20.905Z,57.90
2023-01-15T14:57:20.857Z,45.00
2023-01-15T15:00:39.367Z,47.10
2023-01-15T15:04:00.412Z,130.20
2023-01-15T15:07:32.547Z,153.50
2023-01-15T15:10:50.940Z,142.40
2023-01-15T15:14:04.502Z,133.30
2023-01-15T15:17:09.406Z,124.80
2023-01-15T15:23:41.369Z,85.60
2023-01-15T15:29:44.881Z,137.10
2023-01-15T15:35:55.353Z,91.10
2023-01-15T15:38:50.311Z,103.50
2023-01-15T15:46:28.488Z,105.70
2023-01-15T15:49:46.198Z,81.80
2023-01-15T15:52:38.332Z,49.70
2023-01-15T15:55:31.262Z,67.20
2023-01-15T15:58:40.620Z,107.40
2023-01-15T16:01:37.786Z,81.00
2023-01-15T16:04:53.224Z,119.50
2023-01-15T16:11:26.532Z,62.80
2023-01-15T16:14:47.986Z,37.70
2023-01-15T16:18:07.917Z,60.80
2023-01-15T16:21:55.472Z,154.20
2023-01-15T16:25:35.171Z,81.00
2023-01-15T16:29:11.926Z,17.60
2023-01-15T16:32:07.858Z,15.00
2023-01-15T16:35:28.249Z,16.00
2023-01-15T16:38:29.846Z,15.20
2023-01-15T16:41:41.299Z,18.10
2023-01-15T16:45:00.809Z,14.70
2023-01-15T16:47:53.021Z,33.60
2023-01-15T16:50:56.060Z,46.40
2023-01-15T16:53:48.712Z,28.50
2023-01-15T16:57:05.850Z,30.30
2023-01-15T17:00:02.869Z,28.40
2023-01-15T17:02:53.549Z,50.80
2023-01-15T17:05:51.793Z,42.70
2023-01-15T17:08:54.219Z,42.00
2023-01-15T17:11:43.278Z,19.40
2023-01-15T17:14:37.725Z,16.80
2023-01-15T17:17:50.551Z,10.90
2023-01-15T17:20:46.280Z,20.70
2023-01-15T17:23:41.794Z,24.00
2023-01-15T17:26:37.667Z,13.50
2023-01-15T17:29:30.792Z,22.40
2023-01-15T17:32:31.117Z,46.70
2023-01-15T17:35:39.055Z,26.00
2023-01-15T17:38:50.068Z,57.00
2023-01-15T17:42:00.809Z,88.40
2023-01-15T17:45:16.498Z,139.80
2023-01-15T17:48:21.509Z,59.60
2023-01-15T17:51:35.401Z,54.70
2023-01-15T17:55:09.135Z,92.30
2023-01-15T17:58:23.873Z,78.30
2023-01-15T18:01:48.935Z,58.10
2023-01-15T18:05:04.349Z,57.80
2023-01-15T18:07:55.348Z,61.20
2023-01-15T18:10:41.198Z,29.30
2023-01-15T18:13:37.535Z,15.50
2023-01-15T18:16:23.243Z,37.90
2023-01-15T18:19:22.162Z,56.20
2023-01-15T18:22:07.213Z,45.60
2023-01-15T18:25:02.696Z,34.10
2023-01-15T18:27:54.829Z,31.90
2023-01-15T18:30:42.009Z,28.00
2023-01-15T18:33:26.829Z,25.70
2023-01-15T18:39:10.990Z,20.40
2023-01-15T18:42:00.657Z,18.30
2023-01-15T18:45:03.060Z,20.60
2023-01-15T18:50:54.002Z,18.00
2023-01-15T18:53:55.479Z,11.60
2023-01-15T18:56:51.497Z,13.00
2023-01-15T18:59:45.693Z,14.80
2023-01-15T19:02:33.944Z,14.60
2023-01-15T19:05:26.104Z,18.80
2023-01-15T19:08:15.172Z,19.80
2023-01-15T19:14:47.428Z,8.80
2023-01-15T19:17:56.358Z,4.90
2023-01-15T19:20:41.244Z,5.00
2023-01-15T19:23:32.747Z,10.60
2023-01-15T19:26:17.328Z,8.30
2023-01-15T19:29:12.157Z,7.00
2023-01-15T19:32:06.470Z,6.80
2023-01-15T19:34:59.325Z,12.50
2023-01-15T19:37:45.027Z,13.60
2023-01-15T19:40:41.333Z,8.50
2023-01-15T19:43:43.847Z,7.00
2023-01-15T19:46:59.321Z,8.50
2023-01-15T19:50:01.543Z,14.60
2023-01-15T19:52:54.248Z,13.60
2023-01-15T19:55:40.050Z,14.20
2023-01-15T19:58:38.208Z,10.90
2023-01-15T20:01:23.077Z,9.10
2023-01-15T20:08:26.532Z,5.80
2023-01-15T20:12:11.536Z,6.20
2023-01-15T20:15:31.007Z,5.60
2023-01-15T20:18:35.908Z,5.40
2023-01-15T20:21:48.291Z,14.20
2023-01-15T20:25:03.120Z,14.10
2023-01-15T20:31:43.643Z,45.70
2023-01-15T20:32:29.147Z,15.60
2023-01-15T20:34:41.529Z,72.50
2023-01-15T20:37:36.675Z,64.80
2023-01-15T20:40:32.819Z,28.10
2023-01-15T20:44:00.428Z,27.30
2023-01-15T20:47:00.766Z,16.40
2023-01-15T20:50:12.656Z,19.70
2023-01-15T20:52:59.603Z,18.90
2023-01-15T20:55:57.718Z,17.00
2023-01-15T20:58:51.031Z,23.50
2023-01-15T21:01:54.909Z,25.90
2023-01-15T21:04:39.985Z,36.20
2023-01-15T21:07:44.677Z,30.60
2023-01-15T21:10:32.710Z,36.50
2023-01-15T21:16:35.815Z,28.80
2023-01-15T21:19:42.703Z,18.10
2023-01-15T21:23:08.599Z,24.10
2023-01-15T21:29:14.047Z,23.00
2023-01-15T21:32:11.148Z,15.80
2023-01-15T21:35:06.805Z,15.10
2023-01-15T21:48:25.052Z,10.80
2023-01-15T21:51:25.075Z,14.10
2023-01-15T21:54:21.528Z,14.00
2023-01-15T21:57:27.484Z,14.60
2023-01-15T22:00:26.431Z,15.10
2023-01-15T22:03:32.751Z,18.10
2023-01-15T22:06:27.547Z,15.00
2023-01-15T22:09:25.137Z,13.20
2023-01-15T22:12:11.058Z,7.00
2023-01-15T22:15:06.986Z,6.40
2023-01-15T22:17:59.948Z,7.40
2023-01-15T22:20:52.458Z,8.90
2023-01-15T22:23:48.852Z,7.50
2023-01-15T22:27:05.795Z,6.80
2023-01-15T22:33:39.320Z,5.80
2023-01-15T22:36:46.896Z,3.80
2023-01-15T22:40:39.301Z,3.60
2023-01-15T22:43:34.053Z,10.80
2023-01-15T22:46:43.950Z,8.50
2023-01-15T22:49:31.494Z,6.80
2023-01-15T22:55:54.679Z,6.10
2023-01-15T22:58:51.643Z,6.90
2023-01-15T23:01:41.373Z,4.50
2023-01-15T23:04:32.508Z,6.00
2023-01-15T23:07:30.287Z,5.00
2023-01-15T23:10:25.537Z,4.00
2023-01-15T23:13:29.112Z,4.10
2023-01-15T23:16:31.298Z,3.30
2023-01-15T23:19:34.188Z,7.20
2023-01-15T23:22:34.540Z,5.40
2023-01-15T23:25:23.707Z,3.90
2023-01-15T23:28:32.228Z,6.80
2023-01-15T23:31:19.069Z,4.50
2023-01-15T23:34:25.520Z,3.60
2023-01-15T23:37:12.959Z,4.20
2023-01-15T23:40:08.976Z,4.10
2023-01-15T23:43:27.256Z,6.50
2023-01-15T23:46:48.117Z,6.60
2023-01-15T23:49:32.828Z,5.90
2023-01-15T23:52:23.446Z,6.40
2023-01-15T23:55:16.354Z,6.40
2023-01-15T23:58:07.439Z,4.10
